• Join FlightAware (Why Join?)
  • Login
  • US Flag 
11:07AM EST


 

Airport Tracker/Info


-or-


 

Live Flight TrackerFlight Track Log ✈ EJA587P ✈ 06-Feb-2014 ✈ KLAS - KICT

Flight Track Log - Related Links

Times and Time Zones

All times are in EST time to prevent confusion due to time zone crossing. See the EJA587P flight status page for this flight to view local times or setup timezone preferences in your user account.

Time Position Orientation Groundspeed Altitude Reporting Facility
EST Latitude Longitude Course Direction KTS MPH feet Rate Location/Type
09:02PM 36.1261 -115.1303 46° Northeast 212 244 4,400  Level Los Angeles Center
09:03PM 36.1350 -115.0558 82° East 242 278 7,500 3,420 Climbing Los Angeles Center
09:03PM 36.1367 -115.0392 83° East 251 289 8,200 3,060 Climbing Los Angeles Center
09:04PM 36.1447 -114.9658 82° East 264 304 10,700 2,940 Climbing Los Angeles Center
09:05PM 36.1531 -114.8775 83° East 271 312 13,800 2,820 Climbing Los Angeles Center
09:06PM 36.1658 -114.7803 81° East 283 326 16,600 2,580 Climbing Los Angeles Center
09:07PM 36.1892 -114.6517 77° East 316 364 19,200 2,220 Climbing Los Angeles Center
09:08PM 36.1897 -114.5281 90° East 352 405 21,200 1,980 Climbing Los Angeles Center
09:09PM 36.1911 -114.3936 89° East 381 438 23,400 2,280 Climbing Los Angeles Center
09:10PM 36.1931 -114.2539 89° East 400 460 26,000 2,460 Climbing Los Angeles Center
09:11PM 36.2078 -114.1169 82° East 402 463 28,600 2,100 Climbing Los Angeles Center
09:13PM 36.2242 -113.9817 81° East 399 459 30,800 1,980 Climbing Los Angeles Center
09:14PM 36.2478 -113.7886 81° East 404 465 33,500 2,160 Climbing Los Angeles Center
09:15PM 36.2661 -113.6244 82° East 402 463 35,700 1,560 Climbing Los Angeles Center
09:16PM 36.2817 -113.4911 82° East 395 455 36,800 900 Climbing Los Angeles Center
09:17PM 36.2975 -113.3522 82° East 402 463 37,600 840 Climbing Los Angeles Center
09:18PM 36.3189 -113.2058 80° East 414 476 38,600 660 Climbing Los Angeles Center
09:19PM 36.3678 -113.0783 65° Northeast 412 474 39,000 180 Climbing Los Angeles Center
09:20PM 36.4172 -112.9414 66° East 430 495 39,000  Level Los Angeles Center
09:21PM 36.4700 -112.7992 65° Northeast 452 520 39,000  Level Los Angeles Center
09:22PM 36.5344 -112.6236 65° Northeast 466 536 39,000  Level Los Angeles Center
09:23PM 36.5889 -112.4744 66° East 474 545 39,000  Level Los Angeles Center
09:24PM 36.6436 -112.3253 65° Northeast 476 548 39,000  Level Los Angeles Center
09:25PM 36.6983 -112.1728 66° East 482 555 39,000  Level Los Angeles Center
09:26PM 36.7436 -112.0503 65° Northeast 486 559 39,000  Level Los Angeles Center
09:27PM 36.8075 -111.8692 66° East 482 555 39,000  Level Los Angeles Center
09:28PM 36.8722 -111.6903 66° East 476 548 39,000  Level Los Angeles Center
09:29PM 36.9253 -111.5414 66° East 474 545 39,000  Level Los Angeles Center
09:30PM 36.9778 -111.3911 66° East 475 547 39,000  Level Los Angeles Center
09:31PM 37.0300 -111.2425 66° East 470 541 39,000  Level Los Angeles Center
09:33PM 37.0914 -111.0631 67° East 469 540 39,000  Level Denver Center
09:34PM 37.1439 -110.9139 66° East 470 541 39,000  Level Denver Center
09:35PM 37.2067 -110.7342 66° East 470 541 39,000  Level Denver Center
09:36PM 37.2581 -110.5819 67° East 475 547 39,000  Level Denver Center
09:37PM 37.3092 -110.4314 67° East 472 543 39,000  Level Denver Center
09:38PM 37.3608 -110.2800 67° East 473 544 39,000  Level Denver Center
09:39PM 37.4075 -110.1425 67° East 472 543 39,000  Level Denver Center
09:40PM 37.4650 -109.9725 67° East 472 543 39,000  Level Denver Center
09:41PM 37.5219 -109.8017 67° East 473 544 39,000  Level Denver Center
09:42PM 37.5708 -109.6561 67° East 472 543 39,000  Level Denver Center
09:43PM 37.6272 -109.4842 67° East 474 545 39,000  Level Denver Center
09:44PM 37.6761 -109.3356 67° East 477 549 39,000  Level Denver Center
09:45PM 37.7247 -109.1883 67° East 475 547 39,000  Level Denver Center
09:46PM 37.7806 -109.0150 68° East 476 548 39,000  Level Denver Center
09:47PM 37.8189 -108.8603 73° East 481 554 39,000  Level Denver Center
09:48PM 37.8411 -108.6697 82° East 486 559 39,000  Level Denver Center
09:49PM 37.8608 -108.5072 81° East 488 562 39,000  Level Denver Center
09:50PM 37.8836 -108.3189 81° East 487 560 39,000  Level Denver Center
09:51PM 37.9033 -108.1581 81° East 485 558 39,000  Level Denver Center
09:52PM 37.9256 -107.9703 81° East 484 557 39,000  Level Denver Center
09:53PM 37.9464 -107.8106 81° East 482 555 39,000  Level Denver Center
09:54PM 37.9653 -107.6489 82° East 483 556 39,000  Level Denver Center
09:55PM 37.9858 -107.4622 82° East 481 554 39,000  Level Denver Center
09:56PM 38.0047 -107.3017 81° East 481 554 39,000  Level Denver Center
09:57PM 38.0258 -107.1167 82° East 483 556 39,000  Level Denver Center
09:58PM 38.0431 -106.9553 82° East 484 557 39,000  Level Denver Center
09:59PM 38.0636 -106.7661 82° East 485 558 39,000  Level Denver Center
10:00PM 38.0808 -106.6050 82° East 483 556 39,000  Level Denver Center
10:01PM 38.1000 -106.4311 82° East 485 558 39,000  Level Denver Center
10:02PM 38.1169 -106.2617 83° East 486 559 39,000  Level Denver Center
10:03PM 38.1361 -106.0756 82° East 487 560 39,000  Level Denver Center
10:04PM 38.1542 -105.9125 82° East 486 559 39,000  Level Denver Center
10:05PM 38.1736 -105.7219 83° East 486 559 39,000  Level Denver Center
10:07PM 38.1894 -105.5556 83° East 494 568 39,000  Level Denver Center
10:08PM 38.2081 -105.3625 83° East 493 567 39,000  Level Denver Center
10:09PM 38.2236 -105.1989 83° East 488 562 39,000  Level Denver Center
10:10PM 38.2394 -105.0333 83° East 489 563 39,000  Level Denver Center
10:11PM 38.2569 -104.8400 83° East 490 564 39,000  Level Denver Center
10:12PM 38.2769 -104.6192 83° East 491 565 39,000  Level Denver Center
10:13PM 38.2917 -104.4517 84° East 493 567 39,000  Level Denver Center
10:14PM 38.2817 -104.2853 94° East 493 567 39,000  Level Denver Center
10:15PM 38.2647 -104.0914 96° East 493 567 39,000  Level Denver Center
10:16PM 38.2500 -103.9256 96° East 491 565 39,000  Level Denver Center
10:17PM 38.2322 -103.7317 97° East 493 567 39,000  Level Denver Center
10:18PM 38.2167 -103.5658 97° East 491 565 39,000  Level Denver Center
10:19PM 38.2019 -103.3989 96° East 494 568 39,000  Level Denver Center
10:20PM 38.1825 -103.2047 97° East 494 568 39,000  Level Denver Center
10:21PM 38.1658 -103.0297 97° East 494 568 39,000  Level Denver Center
10:22PM 38.1494 -102.8647 97° East 492 566 39,000  Level Denver Center
10:23PM 38.1311 -102.6728 97° East 491 565 39,000  Level Denver Center
10:24PM 38.1133 -102.5069 98° East 493 567 39,000  Level Denver Center
10:25PM 38.0933 -102.3150 97° East 491 565 39,000  Level Denver Center
10:26PM 38.0767 -102.1497 97° East 493 567 39,000  Level Denver Center
10:27PM 38.0597 -101.9828 97° East 497 572 39,000  Level Denver Center
10:28PM 38.0411 -101.8136 98° East 501 577 39,000  Level Kansas City Center
10:29PM 38.0194 -101.6167 98° East 504 580 39,000  Level Kansas City Center
10:30PM 38.0008 -101.4489 98° East 503 579 39,000  Level Kansas City Center
10:31PM 37.9789 -101.2508 98° East 505 581 39,000  Level Kansas City Center
10:32PM 37.9592 -101.0806 98° East 506 582 39,000  Level Kansas City Center
10:33PM 37.9397 -100.9100 98° East 506 582 39,000  Level Kansas City Center
10:34PM 37.9203 -100.7372 98° East 510 587 39,000  Level Kansas City Center
10:35PM 37.9111 -100.5350 93° East 511 588 39,000  Level Kansas City Center
10:36PM 37.9028 -100.3631 93° East 509 586 39,000 -120 Level Kansas City Center
10:37PM 37.8950 -100.1908 93° East 510 587 38,800 -780 Descending Kansas City Center
10:38PM 37.8847 -99.9892 94° East 512 589 37,500 -1,260 Descending Kansas City Center
10:39PM 37.8758 -99.8139 94° East 518 596 36,300 -1,200 Descending Kansas City Center
10:40PM 37.8672 -99.6400 94° East 518 596 35,100 -1,560 Descending Kansas City Center
10:42PM 37.8575 -99.4592 94° East 504 580 33,200 -1,920 Descending Kansas City Center
10:43PM 37.8492 -99.2817 93° East 506 582 31,300 -2,160 Descending Kansas City Center
10:44PM 37.8392 -99.1017 94° East 513 590 28,900 -2,460 Descending Kansas City Center
10:45PM 37.8289 -98.9247 94° East 510 587 26,400 -2,520 Descending Kansas City Center
10:46PM 37.8197 -98.7550 94° East 495 570 23,800 -3,000 Descending Kansas City Center
10:46PM 37.8133 -98.6397 94° East 477 549 21,900 -3,240 Descending Kansas City Center
10:47PM 37.8092 -98.5661 94° East 461 531 20,600 -2,760 Descending Kansas City Center
10:47PM 37.8075 -98.5589 106° East 476 548 20,500 -2,700 Descending Kansas City Center
10:48PM 37.8000 -98.4167 94° East 423 487 17,900 -2,700 Descending Kansas City Center
10:48PM 37.7986 -98.4111 108° East 435 501 17,800 -2,040 Descending Kansas City Center
10:49PM 37.7897 -98.2781 95° East 394 453 15,900 -1,980 Descending Kansas City Center
10:49PM 37.7897 -98.2731 90° East 404 465 15,800 -2,100 Descending Kansas City Center
10:50PM 37.7842 -98.1492 93° East 362 417 13,800 -2,100 Descending Kansas City Center
10:50PM 37.7831 -98.1444 107° East 375 432 13,700 -1,920 Descending Kansas City Center
10:51PM 37.7764 -98.0181 94° East 340 391 11,900 -1,680 Descending Kansas City Center
10:51PM 37.7769 -98.0247 276° West 354 407 12,000 -1,500 Climbing Kansas City Center
10:52PM 37.7703 -97.9053 94° East 323 372 10,400 -1,500 Descending Kansas City Center
10:52PM 37.7706 -97.9131 273° West 333 383 10,500 -1,680 Climbing Kansas City Center
10:53PM 37.7644 -97.8003 94° East 300 345 8,700 -1,620 Descending Kansas City Center
10:53PM 37.7642 -97.8072 267° West 315 362 8,900 -2,340 Climbing Kansas City Center
10:54PM 37.7592 -97.7006 93° East 278 320 6,400 -2,280 Descending Kansas City Center
10:54PM 37.7586 -97.7086 265° West 298 343 6,600 -1,860 Climbing Kansas City Center
10:55PM 37.7528 -97.6003 94° East 276 318 4,400 -1,440 Descending Kansas City Center
10:56PM 37.7500 -97.5378 93° East 215 247 4,000 -420 Descending Kansas City Center
10:56PM 37.7492 -97.5242 94° East 244 281 4,000 -600 Level Kansas City Center
10:57PM 37.7414 -97.4703 100° East 184 212 3,400 -720 Descending Kansas City Center
10:57PM 37.7386 -97.4603 109° East 213 245 3,300 -900 Descending Kansas City Center
10:58PM 37.7200 -97.4233 122° Southeast 138 159 2,500 -1,020 Descending Kansas City Center
10:58PM 37.7158 -97.4142 120° Southeast 177 204 2,300 -540 Descending Kansas City Center
10:59PM 37.6869 -97.4075 170° South 118 136 2,000 -420 Descending Kansas City Center
10:59PM 37.6828 -97.4061 165° South 143 165 1,900 -360 Descending Kansas City Center
11:00PM 37.6542 -97.4203 201° Southwest 135 155 1,600 -300 Descending Kansas City Center